createdAt,value
2017-10-27T00:00:48.725Z,0
2017-10-27T00:01:58.761Z,0
2017-10-27T00:03:08.801Z,0
2017-10-27T00:04:19.584Z,0
2017-10-27T00:05:30.765Z,0
2017-10-27T00:06:40.505Z,0
2017-10-27T00:07:50.195Z,0
2017-10-27T00:09:00.590Z,0
2017-10-27T00:10:10.608Z,0
2017-10-27T00:11:20.317Z,0
2017-10-27T00:12:29.660Z,0
2017-10-27T00:13:39.401Z,0
2017-10-27T00:14:49.756Z,0
2017-10-27T00:15:59.094Z,0
2017-10-27T00:17:09.110Z,0
2017-10-27T00:18:18.454Z,0
2017-10-27T00:19:27.802Z,0
2017-10-27T00:20:37.151Z,0
2017-10-27T00:21:46.828Z,0
2017-10-27T00:22:56.885Z,0
2017-10-27T00:24:06.660Z,0
2017-10-27T00:25:16.694Z,0
2017-10-27T00:26:26.060Z,0
2017-10-27T00:27:36.415Z,0
2017-10-27T00:28:46.102Z,0
2017-10-27T00:29:55.778Z,0
2017-10-27T00:31:06.123Z,0
2017-10-27T00:32:16.480Z,0
2017-10-27T00:33:26.498Z,0
2017-10-27T00:34:36.185Z,0
2017-10-27T00:35:45.521Z,0
2017-10-27T00:36:54.862Z,0
2017-10-27T00:38:04.211Z,0
2017-10-27T00:39:13.563Z,0
2017-10-27T00:40:23.911Z,0
2017-10-27T00:41:33.942Z,0
2017-10-27T00:42:43.627Z,0
2017-10-27T00:43:54.161Z,0
2017-10-27T00:45:03.531Z,0
2017-10-27T00:46:12.545Z,0
2017-10-27T00:47:22.242Z,0
2017-10-27T00:48:32.256Z,0
2017-10-27T00:49:42.268Z,0
2017-10-27T00:50:51.288Z,0
2017-10-27T00:52:00.982Z,0
2017-10-27T00:53:10.999Z,0
2017-10-27T00:54:21.352Z,0
2017-10-27T00:55:31.376Z,0
2017-10-27T00:56:40.719Z,0
2017-10-27T00:57:50.739Z,0
2017-10-27T00:59:00.091Z,0
2017-10-27T01:00:09.771Z,0
2017-10-27T01:01:19.792Z,0
2017-10-27T01:02:29.807Z,0
2017-10-27T01:03:39.489Z,0
2017-10-27T01:04:48.497Z,0
2017-10-27T01:05:58.508Z,0
2017-10-27T01:07:08.531Z,0
2017-10-27T01:08:17.880Z,0
2017-10-27T01:09:27.566Z,0
2017-10-27T01:10:36.920Z,0
2017-10-27T01:11:46.935Z,0
2017-10-27T01:12:56.613Z,0
2017-10-27T01:14:06.298Z,0
2017-10-27T01:15:16.647Z,0
2017-10-27T01:16:26.325Z,0
2017-10-27T01:17:36.340Z,0
2017-10-27T01:18:46.693Z,0
2017-10-27T01:19:56.705Z,0
2017-10-27T01:21:06.730Z,0
2017-10-27T01:22:16.408Z,0
2017-10-27T01:23:26.757Z,0
2017-10-27T01:24:36.775Z,0
2017-10-27T01:25:46.123Z,0
2017-10-27T01:26:56.131Z,0
2017-10-27T01:28:05.149Z,0
2017-10-27T01:29:14.495Z,0
2017-10-27T01:30:24.511Z,0
2017-10-27T01:31:34.562Z,0
2017-10-27T01:32:44.266Z,0
2017-10-27T01:33:54.297Z,0
2017-10-27T01:35:03.989Z,0
2017-10-27T01:36:13.675Z,0
2017-10-27T01:37:23.727Z,0
2017-10-27T01:38:33.748Z,0
2017-10-27T01:39:43.442Z,0
2017-10-27T01:40:53.477Z,0
2017-10-27T01:42:03.492Z,0
2017-10-27T01:43:13.173Z,0
2017-10-27T01:44:23.219Z,0
2017-10-27T01:45:33.234Z,0
2017-10-27T01:46:43.625Z,0
2017-10-27T01:47:53.306Z,0
2017-10-27T01:49:02.991Z,0
2017-10-27T01:50:12.690Z,0
2017-10-27T01:51:22.391Z,0
2017-10-27T01:52:32.412Z,0
2017-10-27T01:53:42.109Z,0
2017-10-27T01:54:52.459Z,0
2017-10-27T01:56:02.151Z,0
2017-10-27T01:57:12.177Z,0
2017-10-27T01:58:21.532Z,0
2017-10-27T01:59:31.540Z,0
2017-10-27T02:00:40.891Z,0
2017-10-27T02:01:50.943Z,0
2017-10-27T02:03:00.612Z,0
2017-10-27T02:04:10.968Z,0
2017-10-27T02:05:21.008Z,0
2017-10-27T02:06:30.712Z,0
2017-10-27T02:07:40.393Z,0
2017-10-27T02:08:50.424Z,0
2017-10-27T02:10:00.111Z,0
2017-10-27T02:11:10.523Z,0
2017-10-27T02:12:19.884Z,0
2017-10-27T02:13:29.955Z,0
2017-10-27T02:14:40.009Z,0
2017-10-27T02:15:49.378Z,0
2017-10-27T02:16:59.056Z,0
2017-10-27T02:18:08.769Z,0
2017-10-27T02:19:18.455Z,0
2017-10-27T02:20:28.481Z,0
2017-10-27T02:21:38.532Z,0
2017-10-27T02:22:48.223Z,0
2017-10-27T02:23:58.249Z,0
2017-10-27T02:25:07.946Z,0
2017-10-27T02:26:17.639Z,0
2017-10-27T02:27:27.328Z,0
2017-10-27T02:28:37.379Z,0
2017-10-27T02:29:47.055Z,0
2017-10-27T02:30:57.413Z,0
2017-10-27T02:32:07.140Z,0
2017-10-27T02:33:16.486Z,0
2017-10-27T02:34:26.192Z,0
2017-10-27T02:35:36.554Z,0
2017-10-27T02:36:46.913Z,0
2017-10-27T02:37:57.316Z,0
2017-10-27T02:39:07.000Z,0
2017-10-27T02:40:17.034Z,0
2017-10-27T02:41:26.726Z,0
2017-10-27T02:42:36.742Z,0
2017-10-27T02:43:46.765Z,0
2017-10-27T02:44:56.783Z,0
2017-10-27T02:46:06.478Z,0
2017-10-27T02:47:16.529Z,0
2017-10-27T02:48:26.557Z,0
2017-10-27T02:49:35.912Z,0
2017-10-27T02:50:45.949Z,0
2017-10-27T02:51:55.977Z,0
2017-10-27T02:53:06.040Z,0
2017-10-27T02:54:16.078Z,0
2017-10-27T02:55:26.445Z,0
2017-10-27T02:56:36.797Z,0
2017-10-27T02:57:46.495Z,0
2017-10-27T02:58:56.526Z,0
2017-10-27T03:00:06.550Z,0
2017-10-27T03:01:16.574Z,0
2017-10-27T03:02:26.941Z,0
2017-10-27T03:03:37.292Z,0
2017-10-27T03:04:47.326Z,0
2017-10-27T03:05:57.679Z,0
2017-10-27T03:07:07.372Z,0
2017-10-27T03:08:17.423Z,0
2017-10-27T03:09:27.477Z,0
2017-10-27T03:10:37.168Z,0
2017-10-27T03:11:46.860Z,0
2017-10-27T03:12:56.887Z,0
2017-10-27T03:14:06.242Z,0
2017-10-27T03:15:16.259Z,0
2017-10-27T03:16:25.971Z,0
2017-10-27T03:17:36.335Z,0
2017-10-27T03:18:45.684Z,0
2017-10-27T03:19:55.365Z,0
2017-10-27T03:21:05.736Z,0
2017-10-27T03:22:15.761Z,0
2017-10-27T03:23:26.130Z,0
2017-10-27T03:24:35.819Z,0
2017-10-27T03:25:45.495Z,0
2017-10-27T03:26:55.516Z,0
2017-10-27T03:28:05.545Z,0
2017-10-27T03:29:15.567Z,0
2017-10-27T03:30:25.960Z,0
2017-10-27T03:31:35.966Z,0
2017-10-27T03:32:45.993Z,0
2017-10-27T03:33:55.674Z,0
2017-10-27T03:35:06.036Z,0
2017-10-27T03:36:16.057Z,0
2017-10-27T03:37:26.077Z,0
2017-10-27T03:38:35.783Z,0
2017-10-27T03:39:45.130Z,0
2017-10-27T03:40:55.482Z,0
2017-10-27T03:42:05.858Z,0
2017-10-27T03:43:15.554Z,0
2017-10-27T03:44:25.581Z,0
2017-10-27T03:45:35.264Z,0
2017-10-27T03:46:44.625Z,0
2017-10-27T03:47:53.975Z,0
2017-10-27T03:49:04.029Z,0
2017-10-27T03:50:14.391Z,0
2017-10-27T03:51:24.072Z,0
2017-10-27T03:52:34.111Z,0
2017-10-27T03:53:43.824Z,0
2017-10-27T03:54:53.163Z,0
2017-10-27T03:56:03.177Z,0
2017-10-27T03:57:12.852Z,0
2017-10-27T03:58:22.542Z,0
2017-10-27T03:59:32.225Z,0
2017-10-27T04:00:41.903Z,0
2017-10-27T04:01:52.285Z,0
2017-10-27T04:03:02.315Z,0
2017-10-27T04:04:12.331Z,0
2017-10-27T04:05:22.024Z,0
2017-10-27T04:06:31.715Z,0
2017-10-27T04:07:40.770Z,0
2017-10-27T04:08:50.870Z,0
2017-10-27T04:10:00.879Z,0
2017-10-27T04:11:11.245Z,0
2017-10-27T04:12:21.340Z,0
2017-10-27T04:13:31.421Z,0
2017-10-27T04:14:41.461Z,0
2017-10-27T04:15:51.476Z,0
2017-10-27T04:17:01.835Z,0
2017-10-27T04:18:12.394Z,0
2017-10-27T04:19:21.774Z,0
2017-10-27T04:20:32.159Z,0
2017-10-27T04:21:41.504Z,0
2017-10-27T04:22:51.287Z,0
2017-10-27T04:24:01.780Z,0
2017-10-27T04:25:12.679Z,0
2017-10-27T04:26:22.653Z,0
2017-10-27T04:27:33.167Z,0
2017-10-27T04:28:42.526Z,0
2017-10-27T04:29:52.589Z,0
2017-10-27T04:31:02.423Z,0
2017-10-27T04:32:12.107Z,0
2017-10-27T04:33:22.470Z,0
2017-10-27T04:34:32.817Z,0
2017-10-27T04:35:42.537Z,0
2017-10-27T04:36:52.893Z,0
2017-10-27T04:38:02.919Z,0
2017-10-27T04:39:13.270Z,0
2017-10-27T04:40:22.946Z,0
2017-10-27T04:41:32.663Z,0
2017-10-27T04:42:43.105Z,0
2017-10-27T04:43:52.812Z,0
2017-10-27T04:45:02.857Z,0
2017-10-27T04:46:12.238Z,0
2017-10-27T04:47:22.589Z,0
2017-10-27T04:48:32.272Z,0
2017-10-27T04:49:42.352Z,0
2017-10-27T04:50:51.763Z,0
2017-10-27T04:52:01.836Z,0
2017-10-27T04:53:11.910Z,0
2017-10-27T04:54:22.262Z,0
2017-10-27T04:55:32.625Z,0
2017-10-27T04:56:42.705Z,0
2017-10-27T04:57:52.728Z,0
2017-10-27T04:59:02.758Z,0
2017-10-27T05:00:12.515Z,0
2017-10-27T05:01:22.187Z,0
2017-10-27T05:02:31.884Z,0
2017-10-27T05:03:41.937Z,0
2017-10-27T05:04:51.992Z,0
2017-10-27T05:06:02.053Z,0
2017-10-27T05:07:11.748Z,0
2017-10-27T05:08:21.437Z,0
2017-10-27T05:09:31.127Z,0
2017-10-27T05:10:41.493Z,0
2017-10-27T05:11:51.543Z,0
2017-10-27T05:13:01.574Z,0
2017-10-27T05:14:10.949Z,0
2017-10-27T05:15:20.632Z,0
2017-10-27T05:16:30.360Z,0
2017-10-27T05:17:40.083Z,0
2017-10-27T05:18:49.770Z,0
2017-10-27T05:19:59.465Z,0
2017-10-27T05:21:08.816Z,0
2017-10-27T05:22:18.513Z,0
2017-10-27T05:23:28.222Z,0
2017-10-27T05:24:38.278Z,0
2017-10-27T05:25:47.963Z,0
2017-10-27T05:26:57.646Z,0
2017-10-27T05:28:07.665Z,0
2017-10-27T05:29:17.685Z,0
2017-10-27T05:30:27.034Z,0
2017-10-27T05:31:37.051Z,0
2017-10-27T05:32:47.286Z,0
2017-10-27T05:33:58.092Z,0
2017-10-27T05:35:08.020Z,0
2017-10-27T05:36:18.112Z,0
2017-10-27T05:37:27.471Z,0
2017-10-27T05:38:37.986Z,0
2017-10-27T05:39:48.083Z,0
2017-10-27T05:40:57.430Z,0
2017-10-27T05:42:07.461Z,0
2017-10-27T05:43:17.934Z,0
2017-10-27T05:44:28.109Z,0
2017-10-27T05:45:37.814Z,0
2017-10-27T05:46:47.511Z,0
2017-10-27T05:47:57.612Z,0
2017-10-27T05:49:07.667Z,0
2017-10-27T05:50:17.077Z,0
2017-10-27T05:51:26.764Z,0
2017-10-27T05:52:36.801Z,0
2017-10-27T05:53:46.827Z,0
2017-10-27T05:54:56.851Z,0
2017-10-27T05:56:06.542Z,0
2017-10-27T05:57:16.575Z,0
2017-10-27T05:58:26.271Z,0
2017-10-27T05:59:36.634Z,0
2017-10-27T06:00:46.321Z,0
2017-10-27T06:01:56.019Z,0
2017-10-27T06:03:06.383Z,0
2017-10-27T06:04:16.390Z,0
2017-10-27T06:05:26.422Z,0
2017-10-27T06:06:35.747Z,0
2017-10-27T06:07:45.778Z,0
2017-10-27T06:08:55.799Z,0
2017-10-27T06:10:05.156Z,0
2017-10-27T06:11:15.198Z,0
2017-10-27T06:12:25.548Z,0
2017-10-27T06:13:35.558Z,0
2017-10-27T06:14:45.343Z,0
2017-10-27T06:15:55.697Z,0
2017-10-27T06:17:05.708Z,0
2017-10-27T06:18:15.390Z,0
2017-10-27T06:19:25.410Z,0
2017-10-27T06:20:35.430Z,0
2017-10-27T06:21:45.108Z,0
2017-10-27T06:22:54.454Z,5
2017-10-27T06:24:04.491Z,5
2017-10-27T06:25:14.865Z,5
2017-10-27T06:26:25.059Z,5
2017-10-27T06:27:35.079Z,5
2017-10-27T06:28:45.099Z,5
2017-10-27T06:29:54.791Z,10
2017-10-27T06:31:04.821Z,10
2017-10-27T06:32:14.164Z,10
2017-10-27T06:33:23.861Z,10
2017-10-27T06:34:33.187Z,10
2017-10-27T06:35:42.901Z,10
2017-10-27T06:36:52.941Z,15
2017-10-27T06:38:02.296Z,15
2017-10-27T06:39:11.974Z,15
2017-10-27T06:40:22.003Z,15
2017-10-27T06:41:32.367Z,15
2017-10-27T06:42:42.773Z,15
2017-10-27T06:43:52.887Z,15
2017-10-27T06:45:02.564Z,15
2017-10-27T06:46:12.253Z,20
2017-10-27T06:47:22.018Z,20
2017-10-27T06:48:31.844Z,20
2017-10-27T06:49:41.953Z,20
2017-10-27T06:50:51.851Z,20
2017-10-27T06:52:01.764Z,20
2017-10-27T06:53:11.164Z,20
2017-10-27T06:54:21.365Z,25
2017-10-27T06:55:31.558Z,25
2017-10-27T06:56:41.247Z,25
2017-10-27T06:57:51.181Z,25
2017-10-27T06:59:01.131Z,25
2017-10-27T07:00:11.543Z,25
2017-10-27T07:01:22.138Z,25
2017-10-27T07:02:32.385Z,25
2017-10-27T07:03:42.421Z,25
2017-10-27T07:04:52.990Z,25
2017-10-27T07:06:02.965Z,25
2017-10-27T07:07:12.647Z,30
2017-10-27T07:08:22.850Z,30
2017-10-27T07:09:32.775Z,30
2017-10-27T07:10:42.796Z,35
2017-10-27T07:11:53.400Z,35
2017-10-27T07:13:03.319Z,35
2017-10-27T07:14:13.329Z,35
2017-10-27T07:15:23.360Z,35
2017-10-27T07:16:33.382Z,40
2017-10-27T07:17:43.405Z,40
2017-10-27T07:18:53.773Z,40
2017-10-27T07:20:03.474Z,40
2017-10-27T07:21:13.949Z,40
2017-10-27T07:22:23.300Z,40
2017-10-27T07:23:33.321Z,40
2017-10-27T07:24:42.665Z,45
2017-10-27T07:25:52.360Z,40
2017-10-27T07:27:02.055Z,45
2017-10-27T07:28:11.352Z,45
2017-10-27T07:29:21.407Z,45
2017-10-27T07:30:30.756Z,45
2017-10-27T07:31:40.468Z,50
2017-10-27T07:32:50.157Z,50
2017-10-27T07:33:59.850Z,50
2017-10-27T07:35:09.890Z,50
2017-10-27T07:36:19.938Z,55
2017-10-27T07:37:29.324Z,55
2017-10-27T07:38:38.687Z,55
2017-10-27T07:39:48.733Z,55
2017-10-27T07:40:58.763Z,55
2017-10-27T07:42:09.157Z,55
2017-10-27T07:43:18.503Z,55
2017-10-27T07:44:28.542Z,60
2017-10-27T07:45:38.287Z,60
2017-10-27T07:46:47.963Z,60
2017-10-27T07:47:57.645Z,60
2017-10-27T07:49:08.033Z,55
2017-10-27T07:50:18.380Z,55
2017-10-27T07:51:28.738Z,60
2017-10-27T07:52:38.794Z,55
2017-10-27T07:53:48.828Z,60
2017-10-27T07:54:58.516Z,60
2017-10-27T07:56:08.528Z,60
2017-10-27T07:57:18.567Z,60
2017-10-27T07:58:27.582Z,60
2017-10-27T07:59:37.608Z,60
2017-10-27T08:00:48.001Z,65
2017-10-27T08:01:58.555Z,75
2017-10-27T08:03:09.123Z,65
2017-10-27T08:04:19.173Z,65
2017-10-27T08:05:28.253Z,65
2017-10-27T08:06:37.631Z,60
2017-10-27T08:07:47.650Z,65
2017-10-27T08:08:57.742Z,65
2017-10-27T08:10:07.806Z,65
2017-10-27T08:11:17.492Z,65
2017-10-27T08:12:27.858Z,65
2017-10-27T08:13:37.973Z,65
2017-10-27T08:14:48.343Z,75
2017-10-27T08:15:58.824Z,70
2017-10-27T08:17:08.879Z,65
2017-10-27T08:18:18.911Z,65
2017-10-27T08:19:29.274Z,65
2017-10-27T08:20:39.306Z,65
2017-10-27T08:21:49.324Z,70
2017-10-27T08:22:59.351Z,70
2017-10-27T08:24:09.718Z,70
2017-10-27T08:25:19.742Z,70
2017-10-27T08:26:29.448Z,75
2017-10-27T08:27:38.839Z,75
2017-10-27T08:28:48.527Z,75
2017-10-27T08:29:58.552Z,70
2017-10-27T08:31:08.241Z,70
2017-10-27T08:32:18.262Z,70
2017-10-27T08:33:28.276Z,70
2017-10-27T08:34:37.963Z,70
2017-10-27T08:35:48.317Z,80
2017-10-27T08:36:58.330Z,80
2017-10-27T08:38:08.771Z,80
2017-10-27T08:39:18.794Z,75
2017-10-27T08:40:28.742Z,75
2017-10-27T08:41:39.489Z,80
2017-10-27T08:42:49.262Z,85
2017-10-27T08:43:59.409Z,75
2017-10-27T08:45:09.789Z,80
2017-10-27T08:46:19.149Z,80
2017-10-27T08:47:28.839Z,85
2017-10-27T08:48:39.315Z,85
2017-10-27T08:49:49.352Z,80
2017-10-27T08:50:58.723Z,85
2017-10-27T08:52:08.766Z,80
2017-10-27T08:53:18.140Z,80
2017-10-27T08:54:27.839Z,85
2017-10-27T08:55:38.204Z,80
2017-10-27T08:56:47.895Z,85
2017-10-27T08:57:57.932Z,80
2017-10-27T08:59:07.990Z,80
2017-10-27T09:00:17.695Z,80
2017-10-27T09:01:27.728Z,75
2017-10-27T09:02:38.084Z,85
2017-10-27T09:03:47.437Z,95
2017-10-27T09:04:57.828Z,90
2017-10-27T09:06:07.539Z,90
2017-10-27T09:07:17.584Z,90
2017-10-27T09:08:27.641Z,90
2017-10-27T09:09:37.362Z,95
2017-10-27T09:10:46.714Z,85
2017-10-27T09:11:57.071Z,90
2017-10-27T09:13:06.755Z,85
2017-10-27T09:14:17.114Z,85
2017-10-27T09:15:26.476Z,90
2017-10-27T09:16:36.857Z,85
2017-10-27T09:17:46.899Z,85
2017-10-27T09:18:56.611Z,90
2017-10-27T09:20:06.709Z,90
2017-10-27T09:21:16.486Z,90
2017-10-27T09:22:26.497Z,90
2017-10-27T09:23:36.188Z,85
2017-10-27T09:24:45.905Z,85
2017-10-27T09:25:55.607Z,85
2017-10-27T09:27:05.339Z,80
2017-10-27T09:28:15.409Z,80
2017-10-27T09:29:25.444Z,85
2017-10-27T09:30:35.133Z,90
2017-10-27T09:31:45.221Z,80
2017-10-27T09:32:55.240Z,85
2017-10-27T09:34:04.929Z,90
2017-10-27T09:35:15.282Z,95
2017-10-27T09:36:24.967Z,95
2017-10-27T09:37:35.205Z,100
2017-10-27T09:38:45.754Z,115
2017-10-27T09:39:56.108Z,125
2017-10-27T09:41:05.588Z,105
2017-10-27T09:42:15.757Z,95
2017-10-27T09:43:26.115Z,90
2017-10-27T09:44:36.910Z,115
2017-10-27T09:45:47.472Z,105
2017-10-27T09:46:56.911Z,90
2017-10-27T09:48:06.734Z,70
2017-10-27T09:49:16.931Z,70
2017-10-27T09:50:25.956Z,75
2017-10-27T09:51:35.791Z,80
2017-10-27T09:52:46.323Z,85
2017-10-27T09:53:55.874Z,85
2017-10-27T09:55:05.275Z,85
2017-10-27T09:56:15.178Z,85
2017-10-27T09:57:25.410Z,90
2017-10-27T09:58:35.432Z,105
2017-10-27T09:59:44.568Z,105
2017-10-27T10:00:54.703Z,100
2017-10-27T10:02:04.829Z,100
2017-10-27T10:03:15.251Z,115
2017-10-27T10:04:25.192Z,85
2017-10-27T10:05:34.653Z,80
2017-10-27T10:06:44.679Z,80
2017-10-27T10:07:54.814Z,90
2017-10-27T10:09:05.030Z,90
2017-10-27T10:10:14.377Z,120
2017-10-27T10:11:24.954Z,120
2017-10-27T10:12:35.193Z,110
2017-10-27T10:13:45.275Z,90
2017-10-27T10:14:55.856Z,90
2017-10-27T10:16:06.443Z,115
2017-10-27T10:17:15.881Z,120
2017-10-27T10:18:26.461Z,120
2017-10-27T10:19:37.058Z,120
2017-10-27T10:20:46.587Z,115
2017-10-27T10:21:57.773Z,130
2017-10-27T10:23:07.710Z,140
2017-10-27T10:24:17.878Z,115
2017-10-27T10:25:28.472Z,110
2017-10-27T10:26:37.968Z,105
2017-10-27T10:27:47.747Z,105
2017-10-27T10:28:58.036Z,105
2017-10-27T10:30:08.588Z,105
2017-10-27T10:31:18.942Z,105
2017-10-27T10:32:29.205Z,125
2017-10-27T10:33:39.717Z,115
2017-10-27T10:34:50.080Z,90
2017-10-27T10:35:59.554Z,95
2017-10-27T10:37:10.127Z,95
2017-10-27T10:38:20.169Z,90
2017-10-27T10:39:30.416Z,70
2017-10-27T10:40:40.333Z,60
2017-10-27T10:41:50.017Z,55
2017-10-27T10:43:00.604Z,55
2017-10-27T10:44:10.857Z,70
2017-10-27T10:45:20.548Z,85
2017-10-27T10:46:30.807Z,85
2017-10-27T10:47:41.062Z,95
2017-10-27T10:48:50.755Z,90
2017-10-27T10:50:00.214Z,95
2017-10-27T10:51:10.369Z,85
2017-10-27T10:52:19.736Z,95
2017-10-27T10:53:29.619Z,105
2017-10-27T10:54:39.491Z,105
2017-10-27T10:55:49.176Z,110
2017-10-27T10:56:59.433Z,120
2017-10-27T10:58:09.380Z,120
2017-10-27T10:59:19.411Z,105
2017-10-27T11:00:29.582Z,105
2017-10-27T11:01:39.877Z,110
2017-10-27T11:02:49.903Z,115
2017-10-27T11:04:00.494Z,165
2017-10-27T11:05:10.392Z,150
2017-10-27T11:06:20.433Z,125
2017-10-27T11:07:30.289Z,120
2017-10-27T11:08:40.503Z,90
2017-10-27T11:09:50.309Z,80
2017-10-27T11:11:00.114Z,80
2017-10-27T11:12:10.258Z,85
2017-10-27T11:13:20.284Z,90
2017-10-27T11:14:30.276Z,80
2017-10-27T11:15:40.480Z,65
2017-10-27T11:16:50.527Z,65
2017-10-27T11:18:00.447Z,60
2017-10-27T11:19:10.271Z,55
2017-10-27T11:20:19.949Z,40
2017-10-27T11:21:30.210Z,35
2017-10-27T11:22:40.781Z,35
2017-10-27T11:23:50.133Z,30
2017-10-27T11:25:00.284Z,25
2017-10-27T11:26:09.706Z,20
2017-10-27T11:27:19.454Z,25
2017-10-27T11:28:29.476Z,35
2017-10-27T11:29:38.818Z,40
2017-10-27T11:30:48.503Z,45
2017-10-27T11:31:58.198Z,50
2017-10-27T11:33:07.877Z,55
2017-10-27T11:34:17.895Z,60
2017-10-27T11:35:27.925Z,60
2017-10-27T11:36:38.271Z,65
2017-10-27T11:37:48.621Z,75
2017-10-27T11:38:58.300Z,85
2017-10-27T11:40:08.333Z,85
2017-10-27T11:41:18.350Z,90
2017-10-27T11:42:28.385Z,95
2017-10-27T11:43:38.478Z,105
2017-10-27T11:44:48.491Z,135
2017-10-27T11:45:58.185Z,145
2017-10-27T11:47:08.556Z,135
2017-10-27T11:48:18.253Z,140
2017-10-27T11:49:28.266Z,125
2017-10-27T11:50:37.613Z,135
2017-10-27T11:51:46.965Z,90
2017-10-27T11:52:56.646Z,95
2017-10-27T11:54:06.657Z,100
2017-10-27T11:55:16.343Z,100
2017-10-27T11:56:26.030Z,90
2017-10-27T11:57:36.393Z,85
2017-10-27T11:58:45.406Z,90
2017-10-27T11:59:55.434Z,90
2017-10-27T12:01:05.452Z,95
2017-10-27T12:02:15.144Z,110
2017-10-27T12:03:24.837Z,135
2017-10-27T12:04:34.523Z,130
2017-10-27T12:05:44.545Z,130
2017-10-27T12:06:54.564Z,130
2017-10-27T12:08:04.429Z,130
2017-10-27T12:09:14.451Z,135
2017-10-27T12:10:24.149Z,135
2017-10-27T12:11:34.193Z,130
2017-10-27T12:12:43.879Z,120
2017-10-27T12:13:53.904Z,150
2017-10-27T12:15:03.673Z,105
2017-10-27T12:16:13.359Z,150
2017-10-27T12:17:23.049Z,150
2017-10-27T12:18:33.070Z,155
2017-10-27T12:19:42.761Z,160
2017-10-27T12:20:52.777Z,95
2017-10-27T12:22:03.135Z,105
2017-10-27T12:23:12.829Z,105
2017-10-27T12:24:22.542Z,110
2017-10-27T12:25:32.930Z,125
2017-10-27T12:26:42.273Z,145
2017-10-27T12:27:52.317Z,150
2017-10-27T12:29:02.002Z,135
2017-10-27T12:30:11.689Z,80
2017-10-27T12:31:21.758Z,75
2017-10-27T12:32:31.113Z,140
2017-10-27T12:33:41.164Z,145
2017-10-27T12:34:51.197Z,85
2017-10-27T12:36:01.235Z,90
2017-10-27T12:37:10.587Z,90
2017-10-27T12:38:20.273Z,90
2017-10-27T12:39:29.955Z,145
2017-10-27T12:40:39.310Z,155
2017-10-27T12:41:48.990Z,150
2017-10-27T12:42:58.682Z,155
2017-10-27T12:44:08.053Z,90
2017-10-27T12:45:18.420Z,90
2017-10-27T12:46:28.466Z,150
2017-10-27T12:47:37.815Z,90
2017-10-27T12:48:48.184Z,90
2017-10-27T12:49:57.526Z,150
2017-10-27T12:51:07.885Z,95
2017-10-27T12:52:17.233Z,80
2017-10-27T12:53:27.729Z,75
2017-10-27T12:54:37.472Z,75
2017-10-27T12:55:47.657Z,80
2017-10-27T12:56:57.668Z,140
2017-10-27T12:58:07.267Z,90
2017-10-27T12:59:17.818Z,105
2017-10-27T13:00:27.853Z,150
2017-10-27T13:01:37.711Z,150
2017-10-27T13:02:47.627Z,150
2017-10-27T13:03:58.000Z,140
2017-10-27T13:05:08.258Z,140
2017-10-27T13:06:18.149Z,140
2017-10-27T13:07:27.851Z,140
2017-10-27T13:08:37.766Z,140
2017-10-27T13:09:48.379Z,140
2017-10-27T13:10:58.774Z,145
2017-10-27T13:12:08.706Z,155
2017-10-27T13:13:19.381Z,155
2017-10-27T13:14:29.091Z,165
2017-10-27T13:15:39.362Z,170
2017-10-27T13:16:49.262Z,155
2017-10-27T13:17:59.023Z,170
2017-10-27T13:19:08.916Z,120
2017-10-27T13:20:18.798Z,115
2017-10-27T13:21:28.155Z,100
2017-10-27T13:22:37.988Z,100
2017-10-27T13:23:47.893Z,105
2017-10-27T13:24:57.657Z,105
2017-10-27T13:26:07.908Z,90
2017-10-27T13:27:17.847Z,85
2017-10-27T13:28:27.532Z,80
2017-10-27T13:29:37.658Z,80
2017-10-27T13:30:47.852Z,75
2017-10-27T13:31:57.948Z,70
2017-10-27T13:33:07.829Z,75
2017-10-27T13:34:18.322Z,70
2017-10-27T13:35:28.688Z,70
2017-10-27T13:36:39.189Z,75
2017-10-27T13:37:49.380Z,80
2017-10-27T13:38:59.097Z,75
2017-10-27T13:40:08.957Z,75
2017-10-27T13:41:19.219Z,80
2017-10-27T13:42:28.905Z,75
2017-10-27T13:43:38.478Z,75
2017-10-27T13:44:47.625Z,75
2017-10-27T13:45:57.991Z,80
2017-10-27T13:47:08.153Z,95
2017-10-27T13:48:18.634Z,90
2017-10-27T13:49:28.668Z,85
2017-10-27T13:50:38.845Z,90
2017-10-27T13:51:48.695Z,100
2017-10-27T13:52:58.045Z,110
2017-10-27T13:54:08.619Z,125
2017-10-27T13:55:18.453Z,145
2017-10-27T13:56:28.926Z,125
2017-10-27T13:57:38.797Z,110
2017-10-27T13:58:49.012Z,110
2017-10-27T13:59:58.889Z,95
2017-10-27T14:01:08.913Z,85
2017-10-27T14:02:18.403Z,85
2017-10-27T14:03:27.961Z,75
2017-10-27T14:04:37.676Z,65
2017-10-27T14:05:47.518Z,60
2017-10-27T14:06:57.838Z,65
2017-10-27T14:08:07.858Z,55
2017-10-27T14:09:17.691Z,55
2017-10-27T14:10:27.885Z,45
2017-10-27T14:11:37.910Z,45
2017-10-27T14:12:48.100Z,40
2017-10-27T14:13:57.944Z,40
2017-10-27T14:15:07.648Z,40
2017-10-27T14:16:17.532Z,35
2017-10-27T14:17:28.101Z,30
2017-10-27T14:18:37.110Z,25
2017-10-27T14:19:47.676Z,20
2017-10-27T14:20:58.211Z,15
2017-10-27T14:22:07.914Z,15
2017-10-27T14:23:18.068Z,20
2017-10-27T14:24:27.830Z,25
2017-10-27T14:25:37.910Z,25
2017-10-27T14:26:47.410Z,30
2017-10-27T14:27:57.612Z,30
2017-10-27T14:29:08.067Z,35
2017-10-27T14:30:18.086Z,35
2017-10-27T14:31:28.256Z,40
2017-10-27T14:32:38.464Z,45
2017-10-27T14:33:48.309Z,55
2017-10-27T14:34:58.394Z,60
2017-10-27T14:36:08.212Z,65
2017-10-27T14:37:17.573Z,75
2017-10-27T14:38:27.715Z,80
2017-10-27T14:39:38.337Z,80
2017-10-27T14:40:48.380Z,80
2017-10-27T14:41:58.584Z,80
2017-10-27T14:43:08.008Z,75
2017-10-27T14:44:18.204Z,70
2017-10-27T14:45:28.256Z,65
2017-10-27T14:46:38.388Z,60
2017-10-27T14:47:48.821Z,60
2017-10-27T14:48:59.218Z,50
2017-10-27T14:50:09.089Z,50
2017-10-27T14:51:19.244Z,50
2017-10-27T14:52:28.621Z,50
2017-10-27T14:53:39.129Z,50
2017-10-27T14:54:49.610Z,55
2017-10-27T14:56:00.139Z,60
2017-10-27T14:57:10.189Z,60
2017-10-27T14:58:20.050Z,60
2017-10-27T14:59:29.775Z,55
2017-10-27T15:00:39.888Z,55
2017-10-27T15:01:49.735Z,50
2017-10-27T15:03:00.184Z,50
2017-10-27T15:04:09.876Z,50
2017-10-27T15:05:20.048Z,50
2017-10-27T15:06:30.289Z,50
2017-10-27T15:07:40.687Z,50
2017-10-27T15:08:51.291Z,50
2017-10-27T15:10:01.554Z,50
2017-10-27T15:11:11.910Z,50
2017-10-27T15:12:21.321Z,50
2017-10-27T15:13:31.921Z,50
2017-10-27T15:14:42.091Z,45
2017-10-27T15:15:51.894Z,40
2017-10-27T15:17:02.065Z,35
2017-10-27T15:18:12.346Z,35
2017-10-27T15:19:22.156Z,35
2017-10-27T15:20:32.406Z,35
2017-10-27T15:21:42.176Z,35
2017-10-27T15:22:52.646Z,30
2017-10-27T15:24:02.588Z,30
2017-10-27T15:25:12.641Z,30
2017-10-27T15:26:23.239Z,30
2017-10-27T15:27:33.521Z,25
2017-10-27T15:28:43.227Z,25
2017-10-27T15:29:53.546Z,25
2017-10-27T15:31:03.535Z,25
2017-10-27T15:32:13.219Z,25
2017-10-27T15:33:23.740Z,25
2017-10-27T15:34:33.598Z,25
2017-10-27T15:35:42.629Z,25
2017-10-27T15:36:52.504Z,25
2017-10-27T15:38:02.732Z,25
2017-10-27T15:39:12.868Z,25
2017-10-27T15:40:22.301Z,25
2017-10-27T15:41:32.540Z,20
2017-10-27T15:42:41.781Z,20
2017-10-27T15:43:51.634Z,20
2017-10-27T15:45:01.869Z,20
2017-10-27T15:46:11.394Z,20
2017-10-27T15:47:21.113Z,15
2017-10-27T15:48:31.641Z,15
2017-10-27T15:49:42.215Z,15
2017-10-27T15:50:52.617Z,10
2017-10-27T15:52:02.499Z,10
2017-10-27T15:53:12.437Z,10
2017-10-27T15:54:22.487Z,5
2017-10-27T15:55:32.642Z,5
2017-10-27T15:56:42.753Z,5
2017-10-27T15:57:52.452Z,5
2017-10-27T15:59:02.478Z,5
2017-10-27T16:00:12.511Z,5
2017-10-27T16:01:22.562Z,0
2017-10-27T16:02:31.637Z,0
2017-10-27T16:03:41.326Z,0
2017-10-27T16:04:51.674Z,0
2017-10-27T16:06:02.046Z,0
2017-10-27T16:07:11.835Z,0
2017-10-27T16:08:21.879Z,0
2017-10-27T16:09:31.926Z,0
2017-10-27T16:10:41.972Z,0
2017-10-27T16:11:51.671Z,0
2017-10-27T16:13:02.490Z,0
2017-10-27T16:14:11.844Z,0
2017-10-27T16:15:21.901Z,0
2017-10-27T16:16:32.287Z,0
2017-10-27T16:17:42.002Z,0
2017-10-27T16:18:52.063Z,0
2017-10-27T16:20:02.653Z,0
2017-10-27T16:21:12.333Z,0
2017-10-27T16:22:22.427Z,0
2017-10-27T16:23:32.114Z,0
2017-10-27T16:24:41.890Z,0
2017-10-27T16:25:52.291Z,0
2017-10-27T16:27:01.984Z,0
2017-10-27T16:28:12.019Z,0
2017-10-27T16:29:21.714Z,0
2017-10-27T16:30:31.095Z,0
2017-10-27T16:31:41.737Z,0
2017-10-27T16:32:51.452Z,0
2017-10-27T16:34:01.510Z,0
2017-10-27T16:35:11.530Z,0
2017-10-27T16:36:21.226Z,0
2017-10-27T16:37:31.767Z,0
2017-10-27T16:38:41.645Z,0
2017-10-27T16:39:52.032Z,0
2017-10-27T16:41:02.576Z,0
2017-10-27T16:42:12.837Z,0
2017-10-27T16:43:23.314Z,0
2017-10-27T16:44:33.744Z,0
2017-10-27T16:45:43.643Z,0
2017-10-27T16:46:53.002Z,0
2017-10-27T16:48:03.379Z,0
2017-10-27T16:49:13.091Z,0